KATY/ATY METAR and TAF weather

Enter ICAO airport designator
Station Type Date Time Source
KATY METAR 2020/11/27 13:53 UTC NOAA

KATY 271353Z AUTO 22003KT 10SM CLR M08/M09 A3013 RMK AO2 SLP229 I1000 T10781094


Station Type Date Time Source
KATY Decoded METAR 2020/11/27 13:53 UTC NOAA

WATERTOWN MUNICIPAL AIRPORT, SD, United States (KATY) 44-54N 097-09W 532M
Nov 27, 2020 - 08:53 AM EST / 2020.11.27 1353 UTC
Wind: from the SW (220 degrees) at 3 MPH (3 KT):0
Visibility: 10 mile(s):0
Sky conditions: clear
Temperature: 18.0 F (-7.8 C)
Dew Point: 15.1 F (-9.4 C)
Relative Humidity: 88%
Pressure (altimeter): 30.13 in. Hg (1020 hPa)
ob: KATY 271353Z AUTO 22003KT 10SM CLR M08/M09 A3013 RMK AO2 SLP229 I1000 T10781094
cycle: 14

Station Type Date Time Source
KATY TAF 2020/11/27 12:27 UTC NOAA

TAF KATY 271125Z 2712/2812 28005KT P6SM SKC
FM271900 24011G17KT P6SM FEW250
FM280400 23008KT P6SM SKC WS020/29035KT
FM280500 23008KT P6SM SKC

Example: see airport list